createdAt,value
2022-11-29T00:01:35.222Z,1.37
2022-11-29T00:04:02.478Z,1.41
2022-11-29T00:06:31.018Z,1.42
2022-11-29T00:08:58.993Z,1.43
2022-11-29T00:11:48.577Z,1.43
2022-11-29T00:14:17.957Z,1.42
2022-11-29T00:16:44.745Z,1.43
2022-11-29T00:19:13.146Z,1.43
2022-11-29T00:21:39.941Z,1.39
2022-11-29T00:24:07.333Z,1.44
2022-11-29T00:26:34.111Z,1.43
2022-11-29T00:29:00.849Z,1.43
2022-11-29T00:31:30.519Z,1.31
2022-11-29T00:33:59.062Z,1.38
2022-11-29T00:36:26.581Z,1.40
2022-11-29T00:38:53.289Z,1.38
2022-11-29T00:41:20.120Z,1.39
2022-11-29T00:43:46.821Z,1.27
2022-11-29T00:46:13.593Z,1.39
2022-11-29T00:48:40.345Z,1.40
2022-11-29T00:51:07.743Z,1.36
2022-11-29T00:53:35.778Z,1.40
2022-11-29T00:56:03.857Z,1.40
2022-11-29T00:58:31.353Z,1.40
2022-11-29T01:00:58.144Z,1.38
2022-11-29T01:03:25.356Z,1.41
2022-11-29T01:05:52.393Z,1.40
2022-11-29T01:08:19.292Z,1.34
2022-11-29T01:10:46.035Z,1.35
2022-11-29T01:13:13.969Z,1.38
2022-11-29T01:15:41.574Z,1.32
2022-11-29T01:18:08.372Z,1.35
2022-11-29T01:20:35.067Z,1.34
2022-11-29T01:23:01.788Z,1.34
2022-11-29T01:25:29.398Z,1.30
2022-11-29T01:27:56.120Z,1.29
2022-11-29T01:30:22.886Z,1.32
2022-11-29T01:32:49.798Z,1.33
2022-11-29T01:35:16.527Z,1.33
2022-11-29T01:37:43.223Z,1.32
2022-11-29T01:40:10.226Z,1.30
2022-11-29T01:42:36.952Z,1.33
2022-11-29T01:45:20.294Z,1.28
2022-11-29T01:47:49.499Z,1.37
2022-11-29T01:50:16.698Z,1.34
2022-11-29T01:52:44.212Z,1.39
2022-11-29T01:55:12.823Z,1.37
2022-11-29T01:57:41.528Z,1.34
2022-11-29T02:00:12.242Z,1.30
2022-11-29T02:02:54.298Z,1.35
2022-11-29T02:05:22.032Z,1.28
2022-11-29T02:07:53.599Z,1.34
2022-11-29T02:10:25.908Z,1.32
2022-11-29T02:13:24.788Z,1.31
2022-11-29T02:16:05.123Z,1.31
2022-11-29T02:19:02.970Z,1.31
2022-11-29T02:21:35.890Z,1.30
2022-11-29T02:24:27.390Z,1.31
2022-11-29T02:27:32.406Z,1.29
2022-11-29T02:30:14.028Z,1.29
2022-11-29T02:33:14.424Z,1.30
2022-11-29T02:35:58.210Z,1.30
2022-11-29T02:38:59.886Z,1.31
2022-11-29T02:41:45.095Z,1.35
2022-11-29T02:44:39.265Z,1.36
2022-11-29T02:47:56.629Z,1.37
2022-11-29T02:50:34.892Z,1.38
2022-11-29T02:53:12.509Z,1.39
2022-11-29T02:55:46.549Z,1.39
2022-11-29T02:58:28.534Z,1.40
2022-11-29T03:01:07.667Z,1.39
2022-11-29T03:03:42.278Z,1.41
2022-11-29T03:06:50.413Z,1.42
2022-11-29T03:09:33.132Z,1.44
2022-11-29T03:12:19.144Z,1.45
2022-11-29T03:15:11.424Z,1.45
2022-11-29T03:17:52.102Z,1.46
2022-11-29T03:20:46.735Z,1.44
2022-11-29T03:23:36.829Z,1.22
2022-11-29T03:26:13.152Z,1.45
2022-11-29T03:28:48.688Z,1.44
2022-11-29T03:31:30.082Z,1.42
2022-11-29T03:34:26.446Z,1.42
2022-11-29T03:37:17.452Z,1.44
2022-11-29T03:39:44.114Z,1.42
2022-11-29T03:42:41.285Z,1.39
2022-11-29T03:45:17.623Z,1.30
2022-11-29T03:48:09.887Z,1.32
2022-11-29T03:50:45.364Z,1.23
2022-11-29T03:53:20.476Z,1.30
2022-11-29T03:56:01.509Z,1.14
2022-11-29T03:58:34.812Z,1.25
2022-11-29T04:01:10.377Z,1.25
2022-11-29T04:03:53.997Z,1.22
2022-11-29T04:06:39.267Z,1.22
2022-11-29T04:09:05.943Z,1.21
2022-11-29T04:11:58.853Z,1.20
2022-11-29T04:14:28.486Z,1.22
2022-11-29T04:17:32.508Z,1.21
2022-11-29T04:20:20.669Z,1.22
2022-11-29T04:22:59.410Z,1.20
2022-11-29T04:25:41.304Z,1.20
2022-11-29T04:28:52.477Z,1.19
2022-11-29T04:31:40.452Z,1.20
2022-11-29T04:34:19.248Z,1.18
2022-11-29T04:37:25.820Z,1.15
2022-11-29T04:40:13.695Z,1.00
2022-11-29T04:42:58.104Z,1.13
2022-11-29T04:45:43.180Z,1.13
2022-11-29T04:48:28.330Z,1.12
2022-11-29T04:51:23.991Z,1.09
2022-11-29T04:54:21.497Z,1.08
2022-11-29T04:57:07.405Z,1.08
2022-11-29T04:59:46.292Z,1.11
2022-11-29T05:02:34.825Z,1.11
2022-11-29T05:05:35.640Z,1.11
2022-11-29T05:08:26.739Z,1.08
2022-11-29T05:11:02.264Z,1.08
2022-11-29T05:13:58.581Z,1.06
2022-11-29T05:16:46.523Z,0.99
2022-11-29T05:19:50.709Z,1.05
2022-11-29T05:22:28.889Z,1.05
2022-11-29T05:25:10.761Z,0.98
2022-11-29T05:27:48.826Z,1.03
2022-11-29T05:30:22.221Z,1.03
2022-11-29T05:32:48.901Z,1.04
2022-11-29T05:35:54.129Z,1.04
2022-11-29T05:38:55.544Z,0.88
2022-11-29T05:41:44.330Z,0.95
2022-11-29T05:44:29.446Z,1.03
2022-11-29T05:47:02.598Z,1.03
2022-11-29T05:50:03.940Z,0.95
2022-11-29T05:52:33.611Z,0.99
2022-11-29T05:55:19.140Z,0.99
2022-11-29T05:58:06.765Z,0.99
2022-11-29T06:00:50.743Z,0.98
2022-11-29T06:03:38.584Z,1.02
2022-11-29T06:06:22.770Z,1.01
2022-11-29T06:08:59.237Z,1.00
2022-11-29T06:11:36.052Z,1.00
2022-11-29T06:14:12.512Z,0.99
2022-11-29T06:16:47.740Z,0.82
2022-11-29T06:19:49.380Z,0.93
2022-11-29T06:22:58.108Z,0.97
2022-11-29T06:25:27.735Z,0.95
2022-11-29T06:28:13.977Z,0.93
2022-11-29T06:31:00.715Z,0.89
2022-11-29T06:33:35.526Z,0.89
2022-11-29T06:36:17.725Z,0.93
2022-11-29T06:38:44.624Z,0.95
2022-11-29T06:41:22.703Z,0.99
2022-11-29T06:43:50.504Z,0.96
2022-11-29T06:46:23.504Z,1.01
2022-11-29T06:49:09.148Z,1.01
2022-11-29T06:51:57.532Z,1.00
2022-11-29T06:54:24.202Z,1.00
2022-11-29T06:57:08.801Z,1.03
2022-11-29T07:00:03.710Z,1.05
2022-11-29T07:03:03.894Z,1.06
2022-11-29T07:05:33.276Z,1.07
2022-11-29T07:08:15.727Z,1.06
2022-11-29T07:10:44.470Z,1.11
2022-11-29T07:13:13.513Z,1.12
2022-11-29T07:16:26.812Z,1.15
2022-11-29T07:19:19.041Z,1.16
2022-11-29T07:21:48.740Z,1.14
2022-11-29T07:24:25.235Z,1.14
2022-11-29T07:27:13.681Z,1.16
2022-11-29T07:29:47.052Z,1.17
2022-11-29T07:32:21.276Z,1.12
2022-11-29T07:35:21.575Z,1.24
2022-11-29T07:38:27.234Z,1.26
2022-11-29T07:41:18.674Z,1.30
2022-11-29T07:43:52.072Z,1.33
2022-11-29T07:46:18.848Z,1.34
2022-11-29T07:48:46.032Z,1.38
2022-11-29T07:51:13.524Z,1.19
2022-11-29T07:53:43.621Z,1.39
2022-11-29T07:56:10.491Z,1.37
2022-11-29T07:58:37.266Z,1.38
2022-11-29T08:01:04.218Z,1.46
2022-11-29T08:03:30.976Z,1.48
2022-11-29T08:05:57.737Z,1.51
2022-11-29T08:08:24.789Z,1.54
2022-11-29T08:10:51.450Z,1.58
2022-11-29T08:13:20.517Z,1.60
2022-11-29T08:15:48.167Z,1.64
2022-11-29T08:18:15.887Z,1.67
2022-11-29T08:20:43.297Z,1.68
2022-11-29T08:23:12.748Z,1.74
2022-11-29T08:25:39.983Z,1.79
2022-11-29T08:28:06.742Z,1.83
2022-11-29T08:30:33.925Z,1.80
2022-11-29T08:33:00.536Z,1.88
2022-11-29T08:35:27.554Z,1.89
2022-11-29T08:37:54.800Z,1.92
2022-11-29T08:40:21.549Z,1.92
2022-11-29T08:42:48.280Z,1.94
2022-11-29T08:45:15.051Z,1.98
2022-11-29T08:47:42.945Z,2.03
2022-11-29T08:50:18.051Z,2.08
2022-11-29T08:53:06.065Z,2.16
2022-11-29T08:55:42.806Z,2.25
2022-11-29T08:58:12.482Z,2.35
2022-11-29T09:00:40.916Z,2.35
2022-11-29T09:03:27.186Z,2.50
2022-11-29T09:05:54.128Z,2.39
2022-11-29T09:08:21.208Z,2.35
2022-11-29T09:10:48.025Z,2.44
2022-11-29T09:13:14.928Z,2.47
2022-11-29T09:15:42.503Z,2.52
2022-11-29T09:18:09.409Z,2.51
2022-11-29T09:20:36.281Z,2.55
2022-11-29T09:23:03.327Z,2.61
2022-11-29T09:25:30.102Z,2.62
2022-11-29T09:27:59.143Z,2.63
2022-11-29T09:30:26.418Z,2.70
2022-11-29T09:32:53.176Z,2.63
2022-11-29T09:35:19.879Z,2.57
2022-11-29T09:37:46.584Z,2.51
2022-11-29T09:40:23.064Z,2.47
2022-11-29T09:43:21.869Z,2.47
2022-11-29T09:46:16.225Z,2.43
2022-11-29T09:49:21.684Z,2.40
2022-11-29T09:52:09.048Z,2.38
2022-11-29T09:54:49.437Z,2.42
2022-11-29T09:57:17.662Z,2.38
2022-11-29T09:59:49.284Z,2.38
2022-11-29T10:02:22.112Z,2.36
2022-11-29T10:05:09.316Z,2.37
2022-11-29T10:07:43.685Z,2.29
2022-11-29T10:10:29.587Z,2.32
2022-11-29T10:13:05.411Z,2.28
2022-11-29T10:15:38.772Z,2.22
2022-11-29T10:18:33.150Z,2.33
2022-11-29T10:21:06.754Z,2.31
2022-11-29T10:23:37.372Z,2.35
2022-11-29T10:26:08.066Z,2.37
2022-11-29T10:28:37.321Z,2.42
2022-11-29T10:31:18.972Z,2.48
2022-11-29T10:33:46.807Z,2.49
2022-11-29T10:36:27.020Z,2.43
2022-11-29T10:38:59.003Z,2.48
2022-11-29T10:41:26.894Z,2.30
2022-11-29T10:43:57.250Z,2.50
2022-11-29T10:46:23.948Z,2.54
2022-11-29T10:48:51.077Z,2.52
2022-11-29T10:51:18.307Z,2.54
2022-11-29T10:53:45.566Z,2.53
2022-11-29T10:56:30.107Z,2.56
2022-11-29T10:58:58.491Z,2.63
2022-11-29T11:01:29.045Z,2.69
2022-11-29T11:03:57.884Z,2.69
2022-11-29T11:06:27.675Z,2.70
2022-11-29T11:09:20.661Z,2.70
2022-11-29T11:11:55.933Z,2.71
2022-11-29T11:14:26.869Z,2.75
2022-11-29T11:16:54.118Z,2.71
2022-11-29T11:19:27.688Z,2.74
2022-11-29T11:21:56.520Z,2.71
2022-11-29T11:24:29.381Z,2.69
2022-11-29T11:26:56.835Z,2.66
2022-11-29T11:29:28.881Z,2.69
2022-11-29T11:31:58.441Z,2.66
2022-11-29T11:34:36.857Z,2.69
2022-11-29T11:37:15.411Z,2.57
2022-11-29T11:39:43.741Z,2.51
2022-11-29T11:42:33.075Z,2.49
2022-11-29T11:45:00.730Z,2.51
2022-11-29T11:47:30.084Z,2.53
2022-11-29T11:50:03.467Z,2.53
2022-11-29T11:52:41.281Z,2.54
2022-11-29T11:55:25.361Z,2.58
2022-11-29T11:58:17.421Z,2.57
2022-11-29T12:01:03.612Z,2.58
2022-11-29T12:03:52.761Z,2.61
2022-11-29T12:06:51.741Z,2.62
2022-11-29T12:09:32.457Z,2.63
2022-11-29T12:12:12.426Z,2.55
2022-11-29T12:14:39.652Z,2.56
2022-11-29T12:17:20.203Z,2.63
2022-11-29T12:19:58.676Z,2.72
2022-11-29T12:22:32.864Z,2.80
2022-11-29T12:25:04.611Z,2.91
2022-11-29T12:27:31.959Z,2.96
2022-11-29T12:29:58.702Z,3.05
2022-11-29T12:32:42.008Z,2.95
2022-11-29T12:35:34.948Z,2.92
2022-11-29T12:38:04.545Z,2.95
2022-11-29T12:41:01.104Z,2.95
2022-11-29T12:43:53.540Z,2.94
2022-11-29T12:46:28.684Z,3.00
2022-11-29T12:49:15.992Z,3.05
2022-11-29T12:52:12.396Z,2.95
2022-11-29T12:55:19.104Z,3.02
2022-11-29T12:58:20.077Z,3.06
2022-11-29T13:01:30.656Z,2.89
2022-11-29T13:04:21.088Z,2.84
2022-11-29T13:07:05.621Z,2.89
2022-11-29T13:09:50.945Z,2.89
2022-11-29T13:12:33.164Z,2.89
2022-11-29T13:15:20.267Z,2.91
2022-11-29T13:17:54.919Z,2.91
2022-11-29T13:20:57.953Z,2.86
2022-11-29T13:24:07.500Z,2.82
2022-11-29T13:26:27.459Z,2.73
2022-11-29T13:28:54.620Z,2.74
2022-11-29T13:31:22.978Z,2.75
2022-11-29T13:34:09.447Z,2.77
2022-11-29T13:37:04.834Z,2.69
2022-11-29T13:39:46.409Z,2.72
2022-11-29T13:42:45.283Z,2.75
2022-11-29T13:45:26.958Z,2.77
2022-11-29T13:48:00.500Z,2.76
2022-11-29T13:50:44.451Z,2.72
2022-11-29T13:53:18.027Z,2.61
2022-11-29T13:56:02.938Z,2.57
2022-11-29T13:58:30.773Z,2.58
2022-11-29T14:01:14.505Z,2.53
2022-11-29T14:03:43.214Z,2.59
2022-11-29T14:06:31.446Z,2.56
2022-11-29T14:09:23.713Z,2.54
2022-11-29T14:11:56.633Z,2.53
2022-11-29T14:14:29.272Z,2.53
2022-11-29T14:17:00.438Z,2.55
2022-11-29T14:19:33.980Z,2.56
2022-11-29T14:22:06.970Z,2.56
2022-11-29T14:24:36.181Z,2.53
2022-11-29T14:27:05.935Z,2.53
2022-11-29T14:29:54.095Z,2.51
2022-11-29T14:32:45.795Z,2.49
2022-11-29T14:35:12.995Z,2.49
2022-11-29T14:38:19.310Z,2.49
2022-11-29T14:41:11.468Z,2.48
2022-11-29T14:43:41.607Z,2.46
2022-11-29T14:46:14.151Z,2.43
2022-11-29T14:48:57.478Z,2.44
2022-11-29T14:51:27.439Z,2.44
2022-11-29T14:54:13.325Z,2.43
2022-11-29T14:56:42.726Z,2.40
2022-11-29T14:59:46.740Z,2.40
2022-11-29T15:02:35.089Z,2.38
2022-11-29T15:05:17.554Z,2.37
2022-11-29T15:08:01.895Z,2.29
2022-11-29T15:10:33.535Z,2.18
2022-11-29T15:13:01.241Z,2.29
2022-11-29T15:16:02.966Z,2.25
2022-11-29T15:19:14.418Z,2.23
2022-11-29T15:21:41.107Z,2.24
2022-11-29T15:24:16.268Z,2.21
2022-11-29T15:27:00.330Z,2.19
2022-11-29T15:29:28.390Z,2.12
2022-11-29T15:31:57.894Z,2.15
2022-11-29T15:34:33.726Z,2.14
2022-11-29T15:37:01.341Z,2.15
2022-11-29T15:39:33.987Z,2.14
2022-11-29T15:42:11.863Z,2.15
2022-11-29T15:44:45.625Z,2.15
2022-11-29T15:47:22.848Z,2.16
2022-11-29T15:49:50.689Z,2.15
2022-11-29T15:52:38.390Z,2.11
2022-11-29T15:55:09.991Z,2.10
2022-11-29T15:57:43.207Z,2.12
2022-11-29T16:00:23.904Z,2.10
2022-11-29T16:02:54.117Z,2.09
2022-11-29T16:05:24.985Z,2.07
2022-11-29T16:07:55.985Z,2.07
2022-11-29T16:10:34.815Z,2.05
2022-11-29T16:13:33.964Z,2.04
2022-11-29T16:16:22.743Z,2.08
2022-11-29T16:18:50.704Z,2.12
2022-11-29T16:21:25.508Z,2.12
2022-11-29T16:23:53.381Z,2.12
2022-11-29T16:26:26.742Z,2.13
2022-11-29T16:28:57.832Z,2.16
2022-11-29T16:31:38.068Z,2.15
2022-11-29T16:34:15.814Z,2.15
2022-11-29T16:36:42.552Z,2.14
2022-11-29T16:39:25.232Z,2.12
2022-11-29T16:42:13.642Z,2.10
2022-11-29T16:44:40.195Z,2.09
2022-11-29T16:47:19.845Z,2.07
2022-11-29T16:50:09.572Z,2.06
2022-11-29T16:52:36.281Z,2.03
2022-11-29T16:55:03.058Z,2.12
2022-11-29T16:57:31.275Z,2.14
2022-11-29T16:59:58.249Z,2.13
2022-11-29T17:02:29.451Z,2.14
2022-11-29T17:04:57.089Z,2.08
2022-11-29T17:07:29.702Z,2.12
2022-11-29T17:09:57.214Z,2.04
2022-11-29T17:12:24.082Z,1.94
2022-11-29T17:14:50.866Z,1.92
2022-11-29T17:17:18.764Z,1.91
2022-11-29T17:19:45.658Z,1.83
2022-11-29T17:22:12.500Z,1.88
2022-11-29T17:24:43.527Z,1.83
2022-11-29T17:27:13.191Z,1.84
2022-11-29T17:29:39.864Z,1.92
2022-11-29T17:32:06.663Z,1.95
2022-11-29T17:34:33.764Z,1.97
2022-11-29T17:37:00.543Z,1.95
2022-11-29T17:39:27.388Z,1.97
2022-11-29T17:41:54.173Z,1.93
2022-11-29T17:44:20.916Z,1.96
2022-11-29T17:46:47.597Z,1.97
2022-11-29T17:49:14.393Z,1.97
2022-11-29T17:51:57.449Z,1.92
2022-11-29T17:54:24.409Z,1.98
2022-11-29T17:56:51.242Z,1.92
2022-11-29T17:59:18.051Z,1.91
2022-11-29T18:01:47.195Z,1.82
2022-11-29T18:04:14.209Z,1.82
2022-11-29T18:06:41.488Z,1.79
2022-11-29T18:09:10.369Z,1.77
2022-11-29T18:11:47.016Z,1.70
2022-11-29T18:14:28.315Z,1.72
2022-11-29T18:16:55.293Z,1.64
2022-11-29T18:19:23.281Z,1.82
2022-11-29T18:21:50.694Z,1.83
2022-11-29T18:24:18.333Z,1.85
2022-11-29T18:26:45.408Z,1.85
2022-11-29T18:29:12.256Z,1.87
2022-11-29T18:31:42.250Z,1.88
2022-11-29T18:34:10.666Z,1.88
2022-11-29T18:36:43.325Z,1.89
2022-11-29T18:39:17.808Z,1.80
2022-11-29T18:41:49.548Z,1.89
2022-11-29T18:44:19.572Z,1.91
2022-11-29T18:46:46.503Z,1.87
2022-11-29T18:49:15.954Z,1.90
2022-11-29T18:51:44.637Z,1.90
2022-11-29T18:54:12.261Z,1.89
2022-11-29T18:56:39.357Z,1.86
2022-11-29T18:59:10.413Z,1.88
2022-11-29T19:01:41.234Z,1.74
2022-11-29T19:04:16.343Z,1.88
2022-11-29T19:06:43.488Z,1.90
2022-11-29T19:09:19.284Z,1.87
2022-11-29T19:11:46.155Z,1.88
2022-11-29T19:14:13.293Z,1.83
2022-11-29T19:16:44.393Z,1.88
2022-11-29T19:19:11.573Z,1.82
2022-11-29T19:21:39.966Z,1.86
2022-11-29T19:24:13.865Z,1.86
2022-11-29T19:26:44.562Z,1.86
2022-11-29T19:29:12.303Z,1.79
2022-11-29T19:31:39.480Z,1.83
2022-11-29T19:34:06.441Z,1.81
2022-11-29T19:36:33.181Z,1.82
2022-11-29T19:39:01.780Z,1.77
2022-11-29T19:41:32.424Z,1.79
2022-11-29T19:44:02.214Z,1.78
2022-11-29T19:46:32.126Z,1.82
2022-11-29T19:48:59.741Z,1.81
2022-11-29T19:51:27.751Z,1.80
2022-11-29T19:53:57.556Z,1.83
2022-11-29T19:56:24.414Z,1.73
2022-11-29T19:58:51.588Z,1.83
2022-11-29T20:01:25.095Z,1.83
2022-11-29T20:03:52.957Z,1.74
2022-11-29T20:06:20.036Z,1.82
2022-11-29T20:08:47.589Z,1.84
2022-11-29T20:11:22.704Z,1.83
2022-11-29T20:13:55.173Z,1.85
2022-11-29T20:16:22.684Z,1.92
2022-11-29T20:18:51.398Z,1.93
2022-11-29T20:21:22.120Z,1.92
2022-11-29T20:23:49.504Z,1.93
2022-11-29T20:26:19.386Z,1.95
2022-11-29T20:28:47.407Z,1.95
2022-11-29T20:31:16.491Z,1.99
2022-11-29T20:33:45.864Z,2.01
2022-11-29T20:36:44.118Z,2.02
2022-11-29T20:39:29.007Z,2.03
2022-11-29T20:42:14.754Z,2.05
2022-11-29T20:44:55.161Z,1.96
2022-11-29T20:47:25.267Z,1.95
2022-11-29T20:49:53.337Z,1.84
2022-11-29T20:53:09.280Z,1.98
2022-11-29T20:55:44.884Z,1.97
2022-11-29T20:58:14.758Z,1.94
2022-11-29T21:00:41.747Z,1.96
2022-11-29T21:03:08.694Z,1.96
2022-11-29T21:05:38.196Z,1.88
2022-11-29T21:08:05.310Z,1.93
2022-11-29T21:10:32.399Z,1.91
2022-11-29T21:12:59.588Z,1.87
2022-11-29T21:15:26.751Z,1.84
2022-11-29T21:17:53.732Z,1.91
2022-11-29T21:20:25.918Z,1.91
2022-11-29T21:23:07.621Z,1.94
2022-11-29T21:25:43.251Z,1.95
2022-11-29T21:28:15.530Z,1.96
2022-11-29T21:30:43.736Z,1.92
2022-11-29T21:33:11.664Z,1.90
2022-11-29T21:35:40.025Z,1.93
2022-11-29T21:38:14.780Z,1.92
2022-11-29T21:40:41.513Z,1.90
2022-11-29T21:43:08.197Z,1.84
2022-11-29T21:45:34.941Z,1.72
2022-11-29T21:48:01.690Z,1.76
2022-11-29T21:50:28.544Z,1.71
2022-11-29T21:52:56.098Z,1.70
2022-11-29T21:55:22.867Z,1.67
2022-11-29T21:57:49.581Z,1.59
2022-11-29T22:00:16.730Z,1.57
2022-11-29T22:02:43.692Z,1.65
2022-11-29T22:05:10.563Z,1.67
2022-11-29T22:07:37.302Z,1.66
2022-11-29T22:10:11.661Z,1.67
2022-11-29T22:12:49.362Z,1.68
2022-11-29T22:15:24.151Z,1.68
2022-11-29T22:17:53.348Z,1.60
2022-11-29T22:20:20.311Z,1.60
2022-11-29T22:22:48.587Z,1.58
2022-11-29T22:25:15.905Z,1.52
2022-11-29T22:27:42.605Z,1.51
2022-11-29T22:30:09.733Z,1.48
2022-11-29T22:32:36.450Z,1.41
2022-11-29T22:35:03.182Z,1.47
2022-11-29T22:37:29.871Z,1.46
2022-11-29T22:39:56.586Z,1.49
2022-11-29T22:42:23.287Z,1.49
2022-11-29T22:44:50.024Z,1.46
2022-11-29T22:47:16.716Z,1.44
2022-11-29T22:49:44.597Z,1.44
2022-11-29T22:52:11.279Z,1.44
2022-11-29T22:54:37.986Z,1.48
2022-11-29T22:57:05.297Z,1.48
2022-11-29T22:59:32.053Z,1.49
2022-11-29T23:01:58.789Z,1.49
2022-11-29T23:04:25.500Z,1.48
2022-11-29T23:06:52.242Z,1.48
2022-11-29T23:09:22.494Z,1.50
2022-11-29T23:11:52.978Z,1.54
2022-11-29T23:14:20.607Z,1.61
2022-11-29T23:16:47.502Z,1.63
2022-11-29T23:19:16.480Z,1.61
2022-11-29T23:21:45.772Z,1.59
2022-11-29T23:24:14.253Z,1.55
2022-11-29T23:26:44.323Z,1.55
2022-11-29T23:29:14.018Z,1.59
2022-11-29T23:31:41.031Z,1.58
2022-11-29T23:34:07.917Z,1.59
2022-11-29T23:36:34.812Z,1.61
2022-11-29T23:39:04.396Z,1.58
2022-11-29T23:41:31.096Z,1.55
2022-11-29T23:43:59.671Z,1.48
2022-11-29T23:46:26.723Z,1.48
2022-11-29T23:48:53.484Z,1.41
2022-11-29T23:51:20.665Z,1.45
2022-11-29T23:53:52.043Z,1.43
2022-11-29T23:56:19.220Z,1.40
2022-11-29T23:58:45.839Z,1.43
